Terminal Aerodrome Forecast
Issued by NWS Wilmington, NC

Home | Current Version | Previous Version | Text Only | Print | Product List | Glossary On
Versions: 1 2 3 4 5 6 7 8 9 10 11 12 13 14 15 16
000
FTUS42 KILM 181100
TAFILM
TAF
KILM 181121Z 1812/1912 02012KT P6SM SCT010 BKN060
      TEMPO 1816/1820 BKN025
     FM182300 04013KT 6SM -RA BKN030 OVC050
     FM190200 04012KT 4SM RA BR BKN015 OVC030
     FM190400 04011KT 2SM RA BR BKN006 OVC025=

USA.gov is the U.S. government's official web portal to all federal, state and local government web resources and services.